Cincinnati, Ohio
Traffic Map
Current Weather Conditions
Cincinnati, Ohio
Overcast Light Rain
Overcast
37°
Feels Like: 37°
Wind Chill: 37° Ceiling: 3300
Heat Index: 37° Visibility: 10mi
Dew Point: 36° Wind: 0mph
Humidity: 96% Direction: ° ()
Pressure: 29.7in Gusts: 0mph
Raw Report DataKLUK 081028Z AUTO 00000KT 10SM -RA FEW021 BKN033 OVC090 03/02 A2970 RMK AO2 P0002 T00280022
Traffic Incident Summary
Active as of:
Severity:
Category:
InformationThere was an issue retrieving the traffic information for this location. Please try a different location or try again shortly.
Advertisements
Track Severe Weather on mobile